createdAt,value
2023-05-15T00:01:17.030Z,13.71
2023-05-15T00:06:39.977Z,13.69
2023-05-15T00:12:02.485Z,13.75
2023-05-15T00:17:25.284Z,13.74
2023-05-15T00:22:47.998Z,13.66
2023-05-15T00:28:11.606Z,13.56
2023-05-15T00:33:34.212Z,13.54
2023-05-15T00:38:56.842Z,13.64
2023-05-15T00:44:21.295Z,13.68
2023-05-15T00:49:45.820Z,13.74
2023-05-15T00:55:09.164Z,13.76
2023-05-15T01:00:33.622Z,13.77
2023-05-15T01:05:56.983Z,13.77
2023-05-15T01:11:22.224Z,13.73
2023-05-15T01:16:45.731Z,13.72
2023-05-15T01:22:38.520Z,13.75
2023-05-15T01:28:05.733Z,13.73
2023-05-15T01:33:41.412Z,13.63
2023-05-15T01:39:10.081Z,13.65
2023-05-15T01:44:52.287Z,13.83
2023-05-15T01:50:17.385Z,13.78
2023-05-15T01:55:42.381Z,13.91
2023-05-15T02:01:06.220Z,13.87
2023-05-15T02:06:30.088Z,13.68
2023-05-15T02:11:53.741Z,13.66
2023-05-15T02:17:16.785Z,13.45
2023-05-15T02:22:39.221Z,13.65
2023-05-15T02:28:10.856Z,13.68
2023-05-15T02:39:19.847Z,13.57
2023-05-15T02:44:43.617Z,13.48
2023-05-15T02:50:06.520Z,13.48
2023-05-15T02:55:29.607Z,13.31
2023-05-15T03:00:52.042Z,13.16
2023-05-15T03:06:14.445Z,13.18
2023-05-15T03:11:37.170Z,13.41
2023-05-15T03:16:59.631Z,13.52
2023-05-15T03:22:22.284Z,13.48
2023-05-15T03:27:44.651Z,13.52
2023-05-15T03:33:07.007Z,13.59
2023-05-15T03:38:29.348Z,13.55
2023-05-15T03:43:51.611Z,13.51
2023-05-15T03:49:14.394Z,13.52
2023-05-15T03:54:36.930Z,13.56
2023-05-15T03:59:59.288Z,13.52
2023-05-15T04:05:23.800Z,13.42
2023-05-15T04:10:46.576Z,13.31
2023-05-15T04:16:10.408Z,13.26
2023-05-15T04:21:32.750Z,13.20
2023-05-15T04:26:55.223Z,13.16
2023-05-15T04:32:17.747Z,13.11
2023-05-15T04:37:40.413Z,13.13
2023-05-15T04:43:04.962Z,13.13
2023-05-15T04:48:27.587Z,13.09
2023-05-15T04:53:49.866Z,13.08
2023-05-15T04:59:14.191Z,13.06
2023-05-15T05:04:36.497Z,13.03
2023-05-15T05:09:59.391Z,13.09
2023-05-15T05:15:23.287Z,13.13
2023-05-15T05:20:45.877Z,13.15
2023-05-15T05:26:10.054Z,13.18
2023-05-15T05:31:33.571Z,13.28
2023-05-15T05:36:56.531Z,13.20
2023-05-15T05:42:18.941Z,13.17
2023-05-15T05:47:41.515Z,13.17
2023-05-15T05:53:06.880Z,13.24
2023-05-15T05:58:29.286Z,13.32
2023-05-15T06:03:52.312Z,13.31
2023-05-15T06:09:14.772Z,13.33
2023-05-15T06:14:37.408Z,13.36
2023-05-15T06:20:00.587Z,13.43
2023-05-15T06:25:23.755Z,13.46
2023-05-15T06:30:46.638Z,13.35
2023-05-15T06:36:09.186Z,13.14
2023-05-15T06:41:31.488Z,12.98
2023-05-15T06:46:53.890Z,12.83
2023-05-15T06:52:16.565Z,12.72
2023-05-15T06:57:40.020Z,12.73
2023-05-15T07:03:02.360Z,12.65
2023-05-15T07:08:24.860Z,12.72
2023-05-15T07:13:47.554Z,12.61
2023-05-15T07:19:09.918Z,12.55
2023-05-15T07:24:32.264Z,12.60
2023-05-15T07:29:54.588Z,12.73
2023-05-15T07:35:17.384Z,12.81
2023-05-15T07:40:40.419Z,13.08
2023-05-15T07:46:03.060Z,13.27
2023-05-15T07:51:26.308Z,13.38
2023-05-15T07:56:49.189Z,13.51
2023-05-15T08:02:11.486Z,13.54
2023-05-15T08:07:33.977Z,13.59
2023-05-15T08:12:56.370Z,13.64
2023-05-15T08:18:22.061Z,13.72
2023-05-15T08:23:44.345Z,13.67
2023-05-15T08:29:06.774Z,13.66
2023-05-15T08:34:29.106Z,13.58
2023-05-15T08:39:51.773Z,13.49
2023-05-15T08:45:15.932Z,13.48
2023-05-15T08:50:40.951Z,13.51
2023-05-15T08:56:03.349Z,13.47
2023-05-15T09:01:27.052Z,13.52
2023-05-15T09:06:50.292Z,13.44
2023-05-15T09:12:14.248Z,13.56
2023-05-15T09:17:37.840Z,13.36
2023-05-15T09:23:00.229Z,13.20
2023-05-15T09:28:34.292Z,13.30
2023-05-15T09:33:59.820Z,13.32
2023-05-15T09:39:22.147Z,13.11
2023-05-15T09:44:48.736Z,12.95
2023-05-15T09:50:12.785Z,12.76
2023-05-15T09:55:36.727Z,12.78
2023-05-15T10:01:01.594Z,12.66
2023-05-15T10:06:25.784Z,12.48
2023-05-15T10:11:54.784Z,12.22
2023-05-15T10:17:17.382Z,12.17
2023-05-15T10:22:43.707Z,12.26
2023-05-15T10:28:07.512Z,12.21
2023-05-15T10:33:32.163Z,12.25
2023-05-15T10:38:55.642Z,12.25
2023-05-15T10:44:18.925Z,12.21
2023-05-15T10:49:41.371Z,12.27
2023-05-15T10:55:06.397Z,12.26
2023-05-15T11:00:38.546Z,12.11
2023-05-15T11:06:24.778Z,11.89
2023-05-15T11:12:07.895Z,11.85
2023-05-15T11:17:31.071Z,11.69
2023-05-15T11:22:56.012Z,11.67
2023-05-15T11:28:20.112Z,11.65
2023-05-15T11:33:44.436Z,11.71
2023-05-15T11:39:09.313Z,11.76
2023-05-15T11:44:33.092Z,11.83
2023-05-15T11:50:00.122Z,11.74
2023-05-15T11:55:25.002Z,11.69
2023-05-15T12:00:48.424Z,11.75
2023-05-15T12:06:14.180Z,11.74
2023-05-15T12:11:38.455Z,11.71
2023-05-15T12:17:04.763Z,11.77
2023-05-15T12:22:27.827Z,11.77
2023-05-15T12:27:52.336Z,11.80
2023-05-15T12:33:17.755Z,11.83
2023-05-15T12:38:42.687Z,11.83
2023-05-15T12:44:05.049Z,11.95
2023-05-15T12:49:29.329Z,11.90
2023-05-15T12:54:53.489Z,11.94
2023-05-15T13:00:21.080Z,11.94
2023-05-15T13:05:45.925Z,12.00
2023-05-15T13:11:10.741Z,11.91
2023-05-15T13:16:48.368Z,12.06
2023-05-15T13:22:11.133Z,12.06
2023-05-15T13:27:33.748Z,12.10
2023-05-15T13:32:56.482Z,12.09
2023-05-15T13:38:19.330Z,12.07
2023-05-15T13:43:42.783Z,12.08
2023-05-15T13:49:05.835Z,12.12
2023-05-15T13:54:29.767Z,12.15
2023-05-15T13:59:52.770Z,12.07
2023-05-15T14:05:16.159Z,12.09
2023-05-15T14:10:38.642Z,12.11
2023-05-15T14:16:01.170Z,12.04
2023-05-15T14:21:23.769Z,12.08
2023-05-15T14:26:46.570Z,12.03
2023-05-15T14:32:09.340Z,12.01
2023-05-15T14:37:32.698Z,12.07
2023-05-15T14:42:56.522Z,12.08
2023-05-15T14:48:19.290Z,12.13
2023-05-15T14:53:42.628Z,12.09
2023-05-15T14:59:05.222Z,12.03
2023-05-15T15:04:29.754Z,12.04
2023-05-15T15:09:53.177Z,12.21
2023-05-15T15:15:16.434Z,12.22
2023-05-15T15:20:40.532Z,12.23
2023-05-15T15:26:03.420Z,12.19
2023-05-15T15:31:29.324Z,12.19
2023-05-15T15:36:52.619Z,12.23
2023-05-15T15:42:14.947Z,12.33
2023-05-15T15:47:37.365Z,12.35
2023-05-15T15:53:00.527Z,12.32
2023-05-15T15:58:22.891Z,12.37
2023-05-15T16:03:45.174Z,12.36
2023-05-15T16:09:07.957Z,12.39
2023-05-15T16:14:32.230Z,12.33
2023-05-15T16:19:54.512Z,12.37
2023-05-15T16:25:16.989Z,12.32
2023-05-15T16:30:48.926Z,12.30
2023-05-15T16:36:05.771Z,12.22
2023-05-15T16:41:28.484Z,12.24
2023-05-15T16:46:51.590Z,12.30
2023-05-15T16:52:14.266Z,12.38
2023-05-15T16:57:36.764Z,12.51
2023-05-15T17:03:00.819Z,12.52
2023-05-15T17:08:23.265Z,12.42
2023-05-15T17:13:45.887Z,12.45
2023-05-15T17:19:08.359Z,12.46
2023-05-15T17:24:46.363Z,12.41
2023-05-15T17:29:55.690Z,12.43
2023-05-15T17:35:19.327Z,12.39
2023-05-15T17:40:41.816Z,12.37
2023-05-15T17:46:06.116Z,12.39
2023-05-15T17:51:29.200Z,12.32
2023-05-15T17:56:51.728Z,12.34
2023-05-15T18:02:14.356Z,12.33
2023-05-15T18:07:37.093Z,12.32
2023-05-15T18:12:59.584Z,12.33
2023-05-15T18:18:23.304Z,12.36
2023-05-15T18:23:46.160Z,12.38
2023-05-15T18:29:09.037Z,12.35
2023-05-15T18:34:31.554Z,12.29
2023-05-15T18:39:59.073Z,12.25
2023-05-15T18:45:22.340Z,12.24
2023-05-15T18:50:45.947Z,12.16
2023-05-15T18:56:08.714Z,12.09
2023-05-15T19:01:31.262Z,12.06
2023-05-15T19:06:56.444Z,12.00
2023-05-15T19:12:19.427Z,12.06
2023-05-15T19:17:41.722Z,12.04
2023-05-15T19:23:03.978Z,12.04
2023-05-15T19:28:27.129Z,12.04
2023-05-15T19:33:50.175Z,12.04
2023-05-15T19:39:12.460Z,12.06
2023-05-15T19:44:35.584Z,12.09
2023-05-15T19:49:57.843Z,12.11
2023-05-15T19:55:20.463Z,12.13
2023-05-15T20:00:43.638Z,12.12
2023-05-15T20:06:07.350Z,12.09
2023-05-15T20:11:29.664Z,12.07
2023-05-15T20:16:51.990Z,12.07
2023-05-15T20:22:14.243Z,12.08
2023-05-15T20:27:36.590Z,12.07
2023-05-15T20:32:59.022Z,12.09
2023-05-15T20:38:21.557Z,12.09
2023-05-15T20:43:44.257Z,12.10
2023-05-15T20:49:06.500Z,12.04
2023-05-15T20:54:29.504Z,11.82
2023-05-15T20:59:51.729Z,11.71
2023-05-15T21:05:14.551Z,11.62
2023-05-15T21:10:36.806Z,11.43
2023-05-15T21:15:59.878Z,11.43
2023-05-15T21:21:22.180Z,11.44
2023-05-15T21:26:44.446Z,11.43
2023-05-15T21:32:07.113Z,11.40
2023-05-15T21:37:29.358Z,11.37
2023-05-15T21:42:52.909Z,11.37
2023-05-15T21:48:15.178Z,11.38
2023-05-15T21:53:37.998Z,11.30
2023-05-15T21:59:00.888Z,11.27
2023-05-15T22:04:23.302Z,11.24
2023-05-15T22:09:46.429Z,11.16
2023-05-15T22:15:08.669Z,11.12
2023-05-15T22:20:31.499Z,11.12
2023-05-15T22:25:54.222Z,11.14
2023-05-15T22:31:16.834Z,11.10
2023-05-15T22:36:39.785Z,11.12
2023-05-15T22:42:02.024Z,11.10
2023-05-15T22:47:24.321Z,11.09
2023-05-15T22:52:46.804Z,11.08
2023-05-15T22:58:09.184Z,11.07
2023-05-15T23:03:31.703Z,11.04
2023-05-15T23:08:54.099Z,11.02
2023-05-15T23:14:17.760Z,10.98
2023-05-15T23:19:39.997Z,10.94
2023-05-15T23:25:02.349Z,10.93
2023-05-15T23:30:25.851Z,10.93
2023-05-15T23:35:48.489Z,10.94
2023-05-15T23:41:10.710Z,10.96
2023-05-15T23:46:33.087Z,10.95
2023-05-15T23:51:56.185Z,10.96
2023-05-15T23:57:19.097Z,10.96
